sensor_id;sensor_type;location;lat;lon;timestamp;P1;durP1;ratioP1;P2;durP2;ratioP2
9042;SDS011;4556;49.150;8.808;2022-08-19T00:00:37;10.47;;;9.30;;
9042;SDS011;4556;49.150;8.808;2022-08-19T00:03:05;11.13;;;10.03;;
9042;SDS011;4556;49.150;8.808;2022-08-19T00:05:35;11.57;;;10.17;;
9042;SDS011;4556;49.150;8.808;2022-08-19T00:08:02;12.10;;;10.67;;
9042;SDS011;4556;49.150;8.808;2022-08-19T00:10:30;12.70;;;10.80;;
9042;SDS011;4556;49.150;8.808;2022-08-19T00:12:57;11.93;;;10.70;;
9042;SDS011;4556;49.150;8.808;2022-08-19T00:15:24;11.93;;;10.70;;
9042;SDS011;4556;49.150;8.808;2022-08-19T00:17:51;11.73;;;10.50;;
9042;SDS011;4556;49.150;8.808;2022-08-19T00:20:19;12.40;;;10.93;;
9042;SDS011;4556;49.150;8.808;2022-08-19T00:22:49;13.07;;;10.53;;
9042;SDS011;4556;49.150;8.808;2022-08-19T00:25:16;11.27;;;10.00;;
9042;SDS011;4556;49.150;8.808;2022-08-19T00:27:44;11.80;;;10.40;;
9042;SDS011;4556;49.150;8.808;2022-08-19T00:30:12;10.97;;;9.87;;
9042;SDS011;4556;49.150;8.808;2022-08-19T00:32:40;11.60;;;10.40;;
9042;SDS011;4556;49.150;8.808;2022-08-19T00:35:08;12.67;;;10.63;;
9042;SDS011;4556;49.150;8.808;2022-08-19T00:37:36;12.10;;;10.80;;
9042;SDS011;4556;49.150;8.808;2022-08-19T00:40:11;15.60;;;10.93;;
9042;SDS011;4556;49.150;8.808;2022-08-19T00:42:38;12.57;;;11.23;;
9042;SDS011;4556;49.150;8.808;2022-08-19T00:45:08;12.37;;;10.47;;
9042;SDS011;4556;49.150;8.808;2022-08-19T00:47:38;12.43;;;11.17;;
9042;SDS011;4556;49.150;8.808;2022-08-19T00:50:06;12.40;;;11.10;;
9042;SDS011;4556;49.150;8.808;2022-08-19T00:52:37;13.37;;;11.27;;
9042;SDS011;4556;49.150;8.808;2022-08-19T00:55:12;12.77;;;11.20;;
9042;SDS011;4556;49.150;8.808;2022-08-19T00:57:42;12.80;;;11.40;;
9042;SDS011;4556;49.150;8.808;2022-08-19T01:00:14;12.70;;;10.50;;
9042;SDS011;4556;49.150;8.808;2022-08-19T01:02:42;13.00;;;11.57;;
9042;SDS011;4556;49.150;8.808;2022-08-19T01:05:10;14.47;;;11.07;;
9042;SDS011;4556;49.150;8.808;2022-08-19T01:07:40;13.10;;;11.63;;
9042;SDS011;4556;49.150;8.808;2022-08-19T01:10:08;14.00;;;12.10;;
9042;SDS011;4556;49.150;8.808;2022-08-19T01:12:39;12.90;;;11.37;;
9042;SDS011;4556;49.150;8.808;2022-08-19T01:15:08;13.33;;;11.83;;
9042;SDS011;4556;49.150;8.808;2022-08-19T01:17:38;15.80;;;11.90;;
9042;SDS011;4556;49.150;8.808;2022-08-19T01:20:08;14.00;;;12.40;;
9042;SDS011;4556;49.150;8.808;2022-08-19T01:22:40;15.00;;;11.80;;
9042;SDS011;4556;49.150;8.808;2022-08-19T01:25:10;14.70;;;12.43;;
9042;SDS011;4556;49.150;8.808;2022-08-19T01:27:39;13.23;;;11.87;;
9042;SDS011;4556;49.150;8.808;2022-08-19T01:30:09;13.87;;;12.03;;
9042;SDS011;4556;49.150;8.808;2022-08-19T01:32:40;13.63;;;12.23;;
9042;SDS011;4556;49.150;8.808;2022-08-19T01:35:09;13.63;;;12.23;;
9042;SDS011;4556;49.150;8.808;2022-08-19T01:37:55;14.33;;;12.77;;
9042;SDS011;4556;49.150;8.808;2022-08-19T01:40:25;14.97;;;13.00;;
9042;SDS011;4556;49.150;8.808;2022-08-19T01:42:54;16.90;;;13.27;;
9042;SDS011;4556;49.150;8.808;2022-08-19T01:45:22;14.73;;;13.23;;
9042;SDS011;4556;49.150;8.808;2022-08-19T01:47:51;17.80;;;13.20;;
9042;SDS011;4556;49.150;8.808;2022-08-19T01:50:19;15.60;;;13.73;;
9042;SDS011;4556;49.150;8.808;2022-08-19T01:52:48;15.50;;;13.90;;
9042;SDS011;4556;49.150;8.808;2022-08-19T01:55:16;16.43;;;13.50;;
9042;SDS011;4556;49.150;8.808;2022-08-19T01:57:49;17.70;;;13.83;;
9042;SDS011;4556;49.150;8.808;2022-08-19T02:00:21;15.70;;;12.53;;
9042;SDS011;4556;49.150;8.808;2022-08-19T02:02:50;16.90;;;13.80;;
9042;SDS011;4556;49.150;8.808;2022-08-19T02:05:17;14.73;;;13.23;;
9042;SDS011;4556;49.150;8.808;2022-08-19T02:07:47;18.60;;;14.63;;
9042;SDS011;4556;49.150;8.808;2022-08-19T02:10:17;15.87;;;14.27;;
9042;SDS011;4556;49.150;8.808;2022-08-19T02:12:47;14.53;;;13.03;;
9042;SDS011;4556;49.150;8.808;2022-08-19T02:15:15;15.93;;;14.20;;
9042;SDS011;4556;49.150;8.808;2022-08-19T02:17:44;16.10;;;14.23;;
9042;SDS011;4556;49.150;8.808;2022-08-19T02:20:11;16.23;;;14.53;;
9042;SDS011;4556;49.150;8.808;2022-08-19T02:22:39;16.10;;;14.50;;
9042;SDS011;4556;49.150;8.808;2022-08-19T02:25:09;17.73;;;15.93;;
9042;SDS011;4556;49.150;8.808;2022-08-19T02:27:36;16.90;;;15.20;;
9042;SDS011;4556;49.150;8.808;2022-08-19T02:30:04;18.33;;;15.97;;
9042;SDS011;4556;49.150;8.808;2022-08-19T02:32:33;17.57;;;15.67;;
9042;SDS011;4556;49.150;8.808;2022-08-19T02:35:03;17.80;;;16.10;;
9042;SDS011;4556;49.150;8.808;2022-08-19T02:37:30;17.13;;;15.43;;
9042;SDS011;4556;49.150;8.808;2022-08-19T02:40:16;16.83;;;15.03;;
9042;SDS011;4556;49.150;8.808;2022-08-19T02:42:43;17.87;;;15.97;;
9042;SDS011;4556;49.150;8.808;2022-08-19T02:45:11;17.80;;;15.90;;
9042;SDS011;4556;49.150;8.808;2022-08-19T02:47:38;19.30;;;17.30;;
9042;SDS011;4556;49.150;8.808;2022-08-19T02:50:06;17.20;;;15.47;;
9042;SDS011;4556;49.150;8.808;2022-08-19T02:52:34;18.87;;;16.97;;
9042;SDS011;4556;49.150;8.808;2022-08-19T02:55:01;19.13;;;17.20;;
9042;SDS011;4556;49.150;8.808;2022-08-19T02:57:31;17.40;;;15.43;;
9042;SDS011;4556;49.150;8.808;2022-08-19T02:59:59;17.50;;;15.70;;
9042;SDS011;4556;49.150;8.808;2022-08-19T03:02:26;17.27;;;15.50;;
9042;SDS011;4556;49.150;8.808;2022-08-19T03:04:53;18.63;;;16.63;;
9042;SDS011;4556;49.150;8.808;2022-08-19T03:07:21;18.33;;;16.40;;
9042;SDS011;4556;49.150;8.808;2022-08-19T03:09:48;17.40;;;15.73;;
9042;SDS011;4556;49.150;8.808;2022-08-19T03:12:15;18.23;;;16.43;;
9042;SDS011;4556;49.150;8.808;2022-08-19T03:14:43;19.00;;;17.10;;
9042;SDS011;4556;49.150;8.808;2022-08-19T03:17:11;18.73;;;16.47;;
9042;SDS011;4556;49.150;8.808;2022-08-19T03:19:39;17.90;;;16.13;;
9042;SDS011;4556;49.150;8.808;2022-08-19T03:22:06;17.77;;;15.90;;
9042;SDS011;4556;49.150;8.808;2022-08-19T03:24:33;19.87;;;17.83;;
9042;SDS011;4556;49.150;8.808;2022-08-19T03:27:00;19.60;;;17.70;;
9042;SDS011;4556;49.150;8.808;2022-08-19T03:29:30;17.60;;;15.73;;
9042;SDS011;4556;49.150;8.808;2022-08-19T03:31:59;18.60;;;16.80;;
9042;SDS011;4556;49.150;8.808;2022-08-19T03:34:30;20.17;;;18.10;;
9042;SDS011;4556;49.150;8.808;2022-08-19T03:36:58;19.50;;;17.40;;
9042;SDS011;4556;49.150;8.808;2022-08-19T03:39:30;18.63;;;16.80;;
9042;SDS011;4556;49.150;8.808;2022-08-19T03:41:57;18.40;;;16.57;;
9042;SDS011;4556;49.150;8.808;2022-08-19T03:44:27;18.80;;;16.90;;
9042;SDS011;4556;49.150;8.808;2022-08-19T03:46:59;19.17;;;17.17;;
9042;SDS011;4556;49.150;8.808;2022-08-19T03:49:27;20.17;;;18.27;;
9042;SDS011;4556;49.150;8.808;2022-08-19T03:51:57;27.67;;;16.87;;
9042;SDS011;4556;49.150;8.808;2022-08-19T03:54:25;18.70;;;16.90;;
9042;SDS011;4556;49.150;8.808;2022-08-19T03:56:54;18.10;;;16.13;;
9042;SDS011;4556;49.150;8.808;2022-08-19T03:59:22;21.23;;;16.37;;
9042;SDS011;4556;49.150;8.808;2022-08-19T04:01:51;19.07;;;17.17;;
9042;SDS011;4556;49.150;8.808;2022-08-19T04:04:20;19.80;;;17.70;;
9042;SDS011;4556;49.150;8.808;2022-08-19T04:06:48;24.10;;;17.90;;
9042;SDS011;4556;49.150;8.808;2022-08-19T04:09:15;19.33;;;17.43;;
9042;SDS011;4556;49.150;8.808;2022-08-19T04:11:44;20.47;;;17.43;;
9042;SDS011;4556;49.150;8.808;2022-08-19T04:14:13;19.43;;;17.10;;
9042;SDS011;4556;49.150;8.808;2022-08-19T04:16:42;20.90;;;18.80;;
9042;SDS011;4556;49.150;8.808;2022-08-19T04:19:10;21.07;;;18.67;;
9042;SDS011;4556;49.150;8.808;2022-08-19T04:21:39;21.00;;;18.67;;
9042;SDS011;4556;49.150;8.808;2022-08-19T04:24:07;20.00;;;17.97;;
9042;SDS011;4556;49.150;8.808;2022-08-19T04:26:36;20.63;;;18.20;;
9042;SDS011;4556;49.150;8.808;2022-08-19T04:29:04;19.27;;;17.37;;
9042;SDS011;4556;49.150;8.808;2022-08-19T04:31:33;19.20;;;17.30;;
9042;SDS011;4556;49.150;8.808;2022-08-19T04:34:02;20.27;;;18.10;;
9042;SDS011;4556;49.150;8.808;2022-08-19T04:36:33;20.83;;;18.63;;
9042;SDS011;4556;49.150;8.808;2022-08-19T04:39:04;20.50;;;18.37;;
9042;SDS011;4556;49.150;8.808;2022-08-19T04:41:33;19.97;;;17.97;;
9042;SDS011;4556;49.150;8.808;2022-08-19T04:44:18;20.37;;;18.27;;
9042;SDS011;4556;49.150;8.808;2022-08-19T04:46:46;19.63;;;17.70;;
9042;SDS011;4556;49.150;8.808;2022-08-19T04:49:15;19.87;;;17.87;;
9042;SDS011;4556;49.150;8.808;2022-08-19T04:51:44;20.90;;;18.70;;
9042;SDS011;4556;49.150;8.808;2022-08-19T04:54:14;20.30;;;18.13;;
9042;SDS011;4556;49.150;8.808;2022-08-19T04:56:42;19.97;;;17.97;;
9042;SDS011;4556;49.150;8.808;2022-08-19T04:59:09;21.43;;;18.97;;
9042;SDS011;4556;49.150;8.808;2022-08-19T05:01:37;19.33;;;17.47;;
9042;SDS011;4556;49.150;8.808;2022-08-19T05:04:04;22.33;;;18.80;;
9042;SDS011;4556;49.150;8.808;2022-08-19T05:06:33;22.43;;;19.33;;
9042;SDS011;4556;49.150;8.808;2022-08-19T05:09:02;20.90;;;18.73;;
9042;SDS011;4556;49.150;8.808;2022-08-19T05:11:33;20.57;;;18.47;;
9042;SDS011;4556;49.150;8.808;2022-08-19T05:14:04;20.80;;;18.80;;
9042;SDS011;4556;49.150;8.808;2022-08-19T05:16:31;20.20;;;18.30;;
9042;SDS011;4556;49.150;8.808;2022-08-19T05:18:58;19.63;;;17.73;;
9042;SDS011;4556;49.150;8.808;2022-08-19T05:21:43;18.73;;;16.93;;
9042;SDS011;4556;49.150;8.808;2022-08-19T05:24:29;19.80;;;17.70;;
9042;SDS011;4556;49.150;8.808;2022-08-19T05:26:58;20.53;;;18.50;;
9042;SDS011;4556;49.150;8.808;2022-08-19T05:29:27;20.77;;;18.43;;
9042;SDS011;4556;49.150;8.808;2022-08-19T05:31:56;21.63;;;18.43;;
9042;SDS011;4556;49.150;8.808;2022-08-19T05:34:24;19.17;;;17.27;;
9042;SDS011;4556;49.150;8.808;2022-08-19T05:36:52;20.50;;;18.43;;
9042;SDS011;4556;49.150;8.808;2022-08-19T05:39:21;19.57;;;17.60;;
9042;SDS011;4556;49.150;8.808;2022-08-19T05:41:50;20.43;;;18.23;;
9042;SDS011;4556;49.150;8.808;2022-08-19T05:44:20;20.57;;;18.47;;
9042;SDS011;4556;49.150;8.808;2022-08-19T05:46:48;20.67;;;18.47;;
9042;SDS011;4556;49.150;8.808;2022-08-19T05:49:18;20.40;;;18.20;;
9042;SDS011;4556;49.150;8.808;2022-08-19T05:51:46;21.20;;;19.10;;
9042;SDS011;4556;49.150;8.808;2022-08-19T05:54:14;19.87;;;17.97;;
9042;SDS011;4556;49.150;8.808;2022-08-19T05:56:41;18.93;;;17.10;;
9042;SDS011;4556;49.150;8.808;2022-08-19T05:59:09;20.13;;;18.03;;
9042;SDS011;4556;49.150;8.808;2022-08-19T06:01:39;20.73;;;18.73;;
9042;SDS011;4556;49.150;8.808;2022-08-19T06:04:09;19.53;;;17.63;;
9042;SDS011;4556;49.150;8.808;2022-08-19T06:06:38;20.17;;;18.17;;
9042;SDS011;4556;49.150;8.808;2022-08-19T06:09:06;18.73;;;16.77;;
9042;SDS011;4556;49.150;8.808;2022-08-19T06:11:35;19.80;;;17.80;;
9042;SDS011;4556;49.150;8.808;2022-08-19T06:14:06;19.73;;;17.73;;
9042;SDS011;4556;49.150;8.808;2022-08-19T06:16:35;17.57;;;15.87;;
9042;SDS011;4556;49.150;8.808;2022-08-19T06:19:06;18.30;;;16.50;;
9042;SDS011;4556;49.150;8.808;2022-08-19T06:21:38;18.97;;;17.27;;
9042;SDS011;4556;49.150;8.808;2022-08-19T06:24:08;20.27;;;18.17;;
9042;SDS011;4556;49.150;8.808;2022-08-19T06:26:38;18.63;;;16.63;;
9042;SDS011;4556;49.150;8.808;2022-08-19T06:29:08;20.03;;;16.70;;
9042;SDS011;4556;49.150;8.808;2022-08-19T06:31:36;17.43;;;15.73;;
9042;SDS011;4556;49.150;8.808;2022-08-19T06:34:09;18.40;;;16.63;;
9042;SDS011;4556;49.150;8.808;2022-08-19T06:36:37;16.97;;;15.27;;
9042;SDS011;4556;49.150;8.808;2022-08-19T06:39:08;17.53;;;15.73;;
9042;SDS011;4556;49.150;8.808;2022-08-19T06:41:38;18.73;;;16.83;;
9042;SDS011;4556;49.150;8.808;2022-08-19T06:44:07;17.60;;;15.83;;
9042;SDS011;4556;49.150;8.808;2022-08-19T06:46:35;19.40;;;16.50;;
9042;SDS011;4556;49.150;8.808;2022-08-19T06:49:02;17.43;;;15.50;;
9042;SDS011;4556;49.150;8.808;2022-08-19T06:51:31;17.00;;;15.13;;
9042;SDS011;4556;49.150;8.808;2022-08-19T06:53:59;17.53;;;15.73;;
9042;SDS011;4556;49.150;8.808;2022-08-19T06:56:28;17.17;;;15.37;;
9042;SDS011;4556;49.150;8.808;2022-08-19T06:58:59;17.53;;;15.70;;
9042;SDS011;4556;49.150;8.808;2022-08-19T07:01:27;16.63;;;14.93;;
9042;SDS011;4556;49.150;8.808;2022-08-19T07:03:54;18.03;;;15.67;;
9042;SDS011;4556;49.150;8.808;2022-08-19T07:06:22;16.57;;;14.67;;
9042;SDS011;4556;49.150;8.808;2022-08-19T07:08:51;17.53;;;15.73;;
9042;SDS011;4556;49.150;8.808;2022-08-19T07:11:18;16.20;;;14.63;;
9042;SDS011;4556;49.150;8.808;2022-08-19T07:13:46;16.97;;;15.37;;
9042;SDS011;4556;49.150;8.808;2022-08-19T07:16:15;16.30;;;14.60;;
9042;SDS011;4556;49.150;8.808;2022-08-19T07:18:44;16.33;;;14.60;;
9042;SDS011;4556;49.150;8.808;2022-08-19T07:21:14;16.33;;;14.83;;
9042;SDS011;4556;49.150;8.808;2022-08-19T07:23:43;17.03;;;15.33;;
9042;SDS011;4556;49.150;8.808;2022-08-19T07:26:14;17.80;;;14.27;;
9042;SDS011;4556;49.150;8.808;2022-08-19T07:28:44;16.03;;;13.70;;
9042;SDS011;4556;49.150;8.808;2022-08-19T07:31:11;20.57;;;14.40;;
9042;SDS011;4556;49.150;8.808;2022-08-19T07:33:40;16.77;;;13.90;;
9042;SDS011;4556;49.150;8.808;2022-08-19T07:36:10;15.60;;;13.97;;
9042;SDS011;4556;49.150;8.808;2022-08-19T07:38:46;15.03;;;13.53;;
9042;SDS011;4556;49.150;8.808;2022-08-19T07:41:17;14.77;;;13.33;;
9042;SDS011;4556;49.150;8.808;2022-08-19T07:43:46;18.73;;;12.47;;
9042;SDS011;4556;49.150;8.808;2022-08-19T07:46:14;17.27;;;12.80;;
9042;SDS011;4556;49.150;8.808;2022-08-19T07:48:42;17.70;;;13.97;;
9042;SDS011;4556;49.150;8.808;2022-08-19T07:51:12;17.10;;;13.40;;
9042;SDS011;4556;49.150;8.808;2022-08-19T07:53:41;14.30;;;12.17;;
9042;SDS011;4556;49.150;8.808;2022-08-19T07:56:09;14.73;;;12.00;;
9042;SDS011;4556;49.150;8.808;2022-08-19T07:58:40;14.67;;;12.37;;
9042;SDS011;4556;49.150;8.808;2022-08-19T08:01:12;14.10;;;11.43;;
9042;SDS011;4556;49.150;8.808;2022-08-19T08:03:41;12.97;;;11.53;;
9042;SDS011;4556;49.150;8.808;2022-08-19T08:06:28;15.03;;;11.07;;
9042;SDS011;4556;49.150;8.808;2022-08-19T08:09:13;11.63;;;10.53;;
9042;SDS011;4556;49.150;8.808;2022-08-19T08:11:47;15.87;;;10.60;;
9042;SDS011;4556;49.150;8.808;2022-08-19T08:14:21;12.97;;;10.77;;
9042;SDS011;4556;49.150;8.808;2022-08-19T08:16:51;11.10;;;9.97;;
9042;SDS011;4556;49.150;8.808;2022-08-19T08:19:19;10.60;;;9.50;;
9042;SDS011;4556;49.150;8.808;2022-08-19T08:22:01;12.30;;;10.50;;
9042;SDS011;4556;49.150;8.808;2022-08-19T08:24:31;13.17;;;9.83;;
9042;SDS011;4556;49.150;8.808;2022-08-19T08:27:00;11.97;;;10.70;;
9042;SDS011;4556;49.150;8.808;2022-08-19T08:29:30;9.67;;;8.67;;
9042;SDS011;4556;49.150;8.808;2022-08-19T08:31:58;13.37;;;8.90;;
9042;SDS011;4556;49.150;8.808;2022-08-19T08:34:25;12.77;;;11.47;;
9042;SDS011;4556;49.150;8.808;2022-08-19T08:36:52;12.80;;;10.90;;
9042;SDS011;4556;49.150;8.808;2022-08-19T08:39:19;12.97;;;10.80;;
9042;SDS011;4556;49.150;8.808;2022-08-19T08:41:50;12.07;;;10.40;;
9042;SDS011;4556;49.150;8.808;2022-08-19T08:44:23;11.37;;;10.17;;
9042;SDS011;4556;49.150;8.808;2022-08-19T08:46:57;11.57;;;10.37;;
9042;SDS011;4556;49.150;8.808;2022-08-19T08:49:29;15.33;;;10.93;;
9042;SDS011;4556;49.150;8.808;2022-08-19T08:52:02;13.30;;;10.83;;
9042;SDS011;4556;49.150;8.808;2022-08-19T08:54:33;11.27;;;9.50;;
9042;SDS011;4556;49.150;8.808;2022-08-19T08:57:07;11.50;;;9.73;;
9042;SDS011;4556;49.150;8.808;2022-08-19T08:59:39;12.17;;;10.10;;
9042;SDS011;4556;49.150;8.808;2022-08-19T09:02:11;13.63;;;10.13;;
9042;SDS011;4556;49.150;8.808;2022-08-19T09:04:38;12.23;;;10.23;;
9042;SDS011;4556;49.150;8.808;2022-08-19T09:07:12;11.83;;;10.43;;
9042;SDS011;4556;49.150;8.808;2022-08-19T09:09:52;11.40;;;9.67;;
9042;SDS011;4556;49.150;8.808;2022-08-19T09:12:25;13.80;;;10.57;;
9042;SDS011;4556;49.150;8.808;2022-08-19T09:15:04;10.70;;;9.60;;
9042;SDS011;4556;49.150;8.808;2022-08-19T09:17:36;11.50;;;10.27;;
9042;SDS011;4556;49.150;8.808;2022-08-19T09:20:05;12.57;;;10.60;;
9042;SDS011;4556;49.150;8.808;2022-08-19T09:22:39;13.37;;;10.60;;
9042;SDS011;4556;49.150;8.808;2022-08-19T09:25:09;11.30;;;10.20;;
9042;SDS011;4556;49.150;8.808;2022-08-19T09:27:38;11.33;;;10.10;;
9042;SDS011;4556;49.150;8.808;2022-08-19T09:30:08;9.93;;;8.93;;
9042;SDS011;4556;49.150;8.808;2022-08-19T09:32:39;10.83;;;8.93;;
9042;SDS011;4556;49.150;8.808;2022-08-19T09:35:08;9.40;;;8.10;;
9042;SDS011;4556;49.150;8.808;2022-08-19T09:37:35;9.60;;;7.93;;
9042;SDS011;4556;49.150;8.808;2022-08-19T09:40:03;10.10;;;7.97;;
9042;SDS011;4556;49.150;8.808;2022-08-19T09:42:32;10.37;;;9.00;;
9042;SDS011;4556;49.150;8.808;2022-08-19T09:44:59;9.20;;;8.13;;
9042;SDS011;4556;49.150;8.808;2022-08-19T09:47:27;10.33;;;7.90;;
9042;SDS011;4556;49.150;8.808;2022-08-19T09:49:56;9.43;;;7.53;;
9042;SDS011;4556;49.150;8.808;2022-08-19T09:52:23;10.90;;;7.60;;
9042;SDS011;4556;49.150;8.808;2022-08-19T09:54:51;8.10;;;7.30;;
9042;SDS011;4556;49.150;8.808;2022-08-19T09:57:19;8.80;;;7.77;;
9042;SDS011;4556;49.150;8.808;2022-08-19T09:59:46;9.30;;;6.27;;
9042;SDS011;4556;49.150;8.808;2022-08-19T10:02:13;9.40;;;8.40;;
9042;SDS011;4556;49.150;8.808;2022-08-19T10:04:40;8.93;;;7.07;;
9042;SDS011;4556;49.150;8.808;2022-08-19T10:07:35;7.03;;;5.90;;
9042;SDS011;4556;49.150;8.808;2022-08-19T10:10:02;8.00;;;6.33;;
9042;SDS011;4556;49.150;8.808;2022-08-19T10:12:31;8.87;;;6.70;;
9042;SDS011;4556;49.150;8.808;2022-08-19T10:14:58;6.80;;;5.97;;
9042;SDS011;4556;49.150;8.808;2022-08-19T10:17:28;6.20;;;5.20;;
9042;SDS011;4556;49.150;8.808;2022-08-19T10:19:56;5.73;;;5.10;;
9042;SDS011;4556;49.150;8.808;2022-08-19T10:22:23;5.40;;;4.90;;
9042;SDS011;4556;49.150;8.808;2022-08-19T10:24:52;5.07;;;4.57;;
9042;SDS011;4556;49.150;8.808;2022-08-19T10:27:19;6.47;;;5.77;;
9042;SDS011;4556;49.150;8.808;2022-08-19T10:29:46;5.93;;;5.33;;
9042;SDS011;4556;49.150;8.808;2022-08-19T10:32:14;5.40;;;4.83;;
9042;SDS011;4556;49.150;8.808;2022-08-19T10:34:41;6.37;;;5.10;;
9042;SDS011;4556;49.150;8.808;2022-08-19T10:37:09;5.30;;;4.60;;
9042;SDS011;4556;49.150;8.808;2022-08-19T10:39:36;5.50;;;4.93;;
9042;SDS011;4556;49.150;8.808;2022-08-19T10:42:06;4.70;;;4.07;;
9042;SDS011;4556;49.150;8.808;2022-08-19T10:44:36;5.33;;;3.63;;
9042;SDS011;4556;49.150;8.808;2022-08-19T10:47:03;4.13;;;3.60;;
9042;SDS011;4556;49.150;8.808;2022-08-19T10:49:31;5.40;;;4.33;;
9042;SDS011;4556;49.150;8.808;2022-08-19T10:52:18;6.80;;;4.40;;
9042;SDS011;4556;49.150;8.808;2022-08-19T10:54:59;4.70;;;4.17;;
9042;SDS011;4556;49.150;8.808;2022-08-19T10:57:46;5.40;;;3.73;;
9042;SDS011;4556;49.150;8.808;2022-08-19T11:00:13;6.77;;;3.90;;
9042;SDS011;4556;49.150;8.808;2022-08-19T11:02:40;4.20;;;3.80;;
9042;SDS011;4556;49.150;8.808;2022-08-19T11:05:08;4.93;;;4.10;;
9042;SDS011;4556;49.150;8.808;2022-08-19T11:07:37;6.40;;;3.77;;
9042;SDS011;4556;49.150;8.808;2022-08-19T11:10:05;5.27;;;3.57;;
9042;SDS011;4556;49.150;8.808;2022-08-19T11:12:33;4.70;;;4.20;;
9042;SDS011;4556;49.150;8.808;2022-08-19T11:15:06;4.97;;;3.90;;
9042;SDS011;4556;49.150;8.808;2022-08-19T11:17:35;3.87;;;3.57;;
9042;SDS011;4556;49.150;8.808;2022-08-19T11:20:07;4.53;;;4.13;;
9042;SDS011;4556;49.150;8.808;2022-08-19T11:22:35;8.47;;;4.40;;
9042;SDS011;4556;49.150;8.808;2022-08-19T11:25:03;4.23;;;3.83;;
9042;SDS011;4556;49.150;8.808;2022-08-19T11:27:31;4.93;;;3.60;;
9042;SDS011;4556;49.150;8.808;2022-08-19T11:29:58;7.00;;;3.97;;
9042;SDS011;4556;49.150;8.808;2022-08-19T11:32:27;5.80;;;4.20;;
9042;SDS011;4556;49.150;8.808;2022-08-19T11:34:54;4.40;;;3.97;;
9042;SDS011;4556;49.150;8.808;2022-08-19T11:37:21;5.80;;;4.00;;
9042;SDS011;4556;49.150;8.808;2022-08-19T11:39:48;7.23;;;3.80;;
9042;SDS011;4556;49.150;8.808;2022-08-19T11:42:16;3.87;;;3.47;;
9042;SDS011;4556;49.150;8.808;2022-08-19T11:45:01;4.53;;;3.70;;
9042;SDS011;4556;49.150;8.808;2022-08-19T11:47:30;4.90;;;3.40;;
9042;SDS011;4556;49.150;8.808;2022-08-19T11:49:58;4.93;;;3.80;;
9042;SDS011;4556;49.150;8.808;2022-08-19T11:52:25;5.07;;;3.50;;
9042;SDS011;4556;49.150;8.808;2022-08-19T11:54:52;5.23;;;3.47;;
9042;SDS011;4556;49.150;8.808;2022-08-19T11:57:19;3.43;;;3.03;;
9042;SDS011;4556;49.150;8.808;2022-08-19T11:59:47;4.17;;;3.77;;
9042;SDS011;4556;49.150;8.808;2022-08-19T12:02:16;4.33;;;3.63;;
9042;SDS011;4556;49.150;8.808;2022-08-19T12:04:45;4.43;;;3.77;;
9042;SDS011;4556;49.150;8.808;2022-08-19T12:07:12;4.87;;;3.50;;
9042;SDS011;4556;49.150;8.808;2022-08-19T12:09:39;4.50;;;4.10;;
9042;SDS011;4556;49.150;8.808;2022-08-19T12:12:07;6.57;;;4.73;;
9042;SDS011;4556;49.150;8.808;2022-08-19T12:14:35;6.03;;;4.73;;
9042;SDS011;4556;49.150;8.808;2022-08-19T12:17:03;5.10;;;4.57;;
9042;SDS011;4556;49.150;8.808;2022-08-19T12:19:32;5.03;;;4.50;;
9042;SDS011;4556;49.150;8.808;2022-08-19T12:22:01;6.07;;;5.37;;
9042;SDS011;4556;49.150;8.808;2022-08-19T12:24:30;5.10;;;4.67;;
9042;SDS011;4556;49.150;8.808;2022-08-19T12:26:58;5.50;;;5.00;;
9042;SDS011;4556;49.150;8.808;2022-08-19T12:29:26;5.07;;;4.57;;
9042;SDS011;4556;49.150;8.808;2022-08-19T12:31:55;5.63;;;5.07;;
9042;SDS011;4556;49.150;8.808;2022-08-19T12:34:27;6.30;;;5.77;;
9042;SDS011;4556;49.150;8.808;2022-08-19T12:36:56;6.00;;;5.40;;
9042;SDS011;4556;49.150;8.808;2022-08-19T12:39:33;6.47;;;5.70;;
9042;SDS011;4556;49.150;8.808;2022-08-19T12:42:01;6.20;;;5.60;;
9042;SDS011;4556;49.150;8.808;2022-08-19T12:44:28;7.87;;;5.87;;
9042;SDS011;4556;49.150;8.808;2022-08-19T12:46:57;6.27;;;5.67;;
9042;SDS011;4556;49.150;8.808;2022-08-19T12:49:30;7.40;;;6.47;;
9042;SDS011;4556;49.150;8.808;2022-08-19T12:51:58;6.00;;;5.40;;
9042;SDS011;4556;49.150;8.808;2022-08-19T12:54:26;6.73;;;6.03;;
9042;SDS011;4556;49.150;8.808;2022-08-19T12:56:54;7.50;;;5.87;;
9042;SDS011;4556;49.150;8.808;2022-08-19T12:59:22;6.33;;;5.30;;
9042;SDS011;4556;49.150;8.808;2022-08-19T13:01:49;6.10;;;5.43;;
9042;SDS011;4556;49.150;8.808;2022-08-19T13:04:17;5.53;;;4.87;;
9042;SDS011;4556;49.150;8.808;2022-08-19T13:06:44;6.47;;;4.93;;
9042;SDS011;4556;49.150;8.808;2022-08-19T13:09:11;5.70;;;5.13;;
9042;SDS011;4556;49.150;8.808;2022-08-19T13:11:38;6.43;;;4.87;;
9042;SDS011;4556;49.150;8.808;2022-08-19T13:14:07;5.33;;;4.83;;
9042;SDS011;4556;49.150;8.808;2022-08-19T13:16:36;5.40;;;4.90;;
9042;SDS011;4556;49.150;8.808;2022-08-19T13:19:04;5.17;;;4.67;;
9042;SDS011;4556;49.150;8.808;2022-08-19T13:21:32;4.43;;;4.03;;
9042;SDS011;4556;49.150;8.808;2022-08-19T13:23:59;4.60;;;4.20;;
9042;SDS011;4556;49.150;8.808;2022-08-19T13:26:26;4.57;;;4.17;;
9042;SDS011;4556;49.150;8.808;2022-08-19T13:29:04;5.43;;;4.83;;
9042;SDS011;4556;49.150;8.808;2022-08-19T13:31:50;4.83;;;4.33;;
9042;SDS011;4556;49.150;8.808;2022-08-19T13:34:35;5.13;;;4.67;;
9042;SDS011;4556;49.150;8.808;2022-08-19T13:37:03;4.53;;;4.13;;
9042;SDS011;4556;49.150;8.808;2022-08-19T13:39:36;5.63;;;4.43;;
9042;SDS011;4556;49.150;8.808;2022-08-19T13:42:03;4.93;;;4.30;;
9042;SDS011;4556;49.150;8.808;2022-08-19T13:44:32;4.80;;;4.30;;
9042;SDS011;4556;49.150;8.808;2022-08-19T13:47:02;4.83;;;3.80;;
9042;SDS011;4556;49.150;8.808;2022-08-19T13:49:32;4.57;;;4.20;;
9042;SDS011;4556;49.150;8.808;2022-08-19T13:52:01;5.87;;;4.17;;
9042;SDS011;4556;49.150;8.808;2022-08-19T13:54:29;4.53;;;4.13;;
9042;SDS011;4556;49.150;8.808;2022-08-19T13:56:56;4.90;;;4.30;;
9042;SDS011;4556;49.150;8.808;2022-08-19T13:59:24;4.83;;;4.30;;
9042;SDS011;4556;49.150;8.808;2022-08-19T14:01:51;4.57;;;4.17;;
9042;SDS011;4556;49.150;8.808;2022-08-19T14:04:20;4.90;;;4.10;;
9042;SDS011;4556;49.150;8.808;2022-08-19T14:06:47;6.10;;;4.00;;
9042;SDS011;4556;49.150;8.808;2022-08-19T14:09:15;4.47;;;3.87;;
9042;SDS011;4556;49.150;8.808;2022-08-19T14:11:42;4.57;;;3.67;;
9042;SDS011;4556;49.150;8.808;2022-08-19T14:14:10;4.33;;;3.00;;
9042;SDS011;4556;49.150;8.808;2022-08-19T14:16:37;3.63;;;3.00;;
9042;SDS011;4556;49.150;8.808;2022-08-19T14:19:05;3.58;;;3.00;;
9042;SDS011;4556;49.150;8.808;2022-08-19T14:21:34;3.45;;;3.15;;
9042;SDS011;4556;49.150;8.808;2022-08-19T14:24:01;3.33;;;3.03;;
9042;SDS011;4556;49.150;8.808;2022-08-19T14:26:29;3.93;;;3.10;;
9042;SDS011;4556;49.150;8.808;2022-08-19T14:28:56;3.60;;;3.30;;
9042;SDS011;4556;49.150;8.808;2022-08-19T14:31:23;5.00;;;3.10;;
9042;SDS011;4556;49.150;8.808;2022-08-19T14:33:51;4.30;;;3.30;;
9042;SDS011;4556;49.150;8.808;2022-08-19T14:36:18;4.73;;;3.13;;
9042;SDS011;4556;49.150;8.808;2022-08-19T14:38:48;3.40;;;3.03;;
9042;SDS011;4556;49.150;8.808;2022-08-19T14:41:16;7.20;;;2.95;;
9042;SDS011;4556;49.150;8.808;2022-08-19T14:43:46;3.00;;;2.80;;
9042;SDS011;4556;49.150;8.808;2022-08-19T14:46:15;5.23;;;3.00;;
9042;SDS011;4556;49.150;8.808;2022-08-19T14:48:45;3.22;;;2.83;;
9042;SDS011;4556;49.150;8.808;2022-08-19T14:51:13;4.13;;;2.92;;
9042;SDS011;4556;49.150;8.808;2022-08-19T14:53:41;3.30;;;3.00;;
9042;SDS011;4556;49.150;8.808;2022-08-19T14:56:12;3.38;;;3.08;;
9042;SDS011;4556;49.150;8.808;2022-08-19T14:58:41;5.50;;;3.10;;
9042;SDS011;4556;49.150;8.808;2022-08-19T15:01:09;3.67;;;3.35;;
9042;SDS011;4556;49.150;8.808;2022-08-19T15:03:38;3.17;;;2.87;;
9042;SDS011;4556;49.150;8.808;2022-08-19T15:06:06;3.92;;;3.55;;
9042;SDS011;4556;49.150;8.808;2022-08-19T15:08:35;3.70;;;3.40;;
9042;SDS011;4556;49.150;8.808;2022-08-19T15:11:07;4.00;;;3.60;;